createdAt,value
2023-03-22T00:01:23.653Z,90.60
2023-03-22T00:03:52.667Z,90.60
2023-03-22T00:06:20.271Z,90.50
2023-03-22T00:08:51.173Z,90.50
2023-03-22T00:11:21.248Z,90.50
2023-03-22T00:13:48.473Z,90.40
2023-03-22T00:16:15.671Z,90.40
2023-03-22T00:18:42.994Z,90.30
2023-03-22T00:21:15.887Z,90.20
2023-03-22T00:23:43.308Z,90.30
2023-03-22T00:26:12.272Z,90.30
2023-03-22T00:28:39.929Z,90.30
2023-03-22T00:31:07.673Z,90.30
2023-03-22T00:33:35.312Z,90.30
2023-03-22T00:36:08.334Z,90.40
2023-03-22T00:38:44.080Z,90.40
2023-03-22T00:41:20.928Z,90.40
2023-03-22T00:43:49.524Z,90.50
2023-03-22T00:46:19.793Z,90.50
2023-03-22T00:48:47.826Z,90.50
2023-03-22T00:51:15.659Z,90.60
2023-03-22T00:53:43.973Z,90.60
2023-03-22T00:56:15.413Z,90.70
2023-03-22T00:58:46.290Z,90.70
2023-03-22T01:01:14.584Z,90.70
2023-03-22T01:03:44.095Z,90.70
2023-03-22T01:06:14.905Z,90.70
2023-03-22T01:08:42.056Z,90.70
2023-03-22T01:11:09.661Z,90.70
2023-03-22T01:13:38.307Z,90.70
2023-03-22T01:16:07.154Z,90.70
2023-03-22T01:18:35.236Z,90.70
2023-03-22T01:21:03.182Z,90.70
2023-03-22T01:23:30.644Z,90.80
2023-03-22T01:25:58.075Z,90.70
2023-03-22T01:28:27.072Z,90.80
2023-03-22T01:30:55.608Z,90.80
2023-03-22T01:33:22.882Z,90.90
2023-03-22T01:35:51.653Z,90.90
2023-03-22T01:38:19.667Z,91.00
2023-03-22T01:41:00.889Z,90.90
2023-03-22T01:43:30.983Z,90.90
2023-03-22T01:45:58.974Z,90.80
2023-03-22T01:48:46.036Z,90.80
2023-03-22T01:51:21.706Z,90.80
2023-03-22T01:54:37.392Z,90.80
2023-03-22T01:57:18.567Z,90.70
2023-03-22T01:59:47.584Z,90.70
2023-03-22T02:02:40.947Z,90.70
2023-03-22T02:05:26.028Z,90.70
2023-03-22T02:07:56.644Z,90.70
2023-03-22T02:10:27.391Z,90.70
2023-03-22T02:13:39.566Z,90.70
2023-03-22T02:17:06.547Z,90.60
2023-03-22T02:20:47.398Z,90.50
2023-03-22T02:24:00.693Z,90.50
2023-03-22T02:27:04.896Z,90.30
2023-03-22T02:30:03.332Z,90.30
2023-03-22T02:32:53.633Z,90.20
2023-03-22T02:36:16.767Z,90.20
2023-03-22T02:39:05.362Z,90.30
2023-03-22T02:41:56.060Z,90.20
2023-03-22T02:44:39.347Z,90.20
2023-03-22T02:47:23.115Z,90.20
2023-03-22T02:50:16.856Z,90.20
2023-03-22T02:52:59.263Z,90.30
2023-03-22T02:55:47.063Z,90.20
2023-03-22T02:58:22.283Z,90.30
2023-03-22T03:00:56.889Z,90.20
2023-03-22T03:03:27.183Z,90.20
2023-03-22T03:05:59.914Z,90.10
2023-03-22T03:08:28.529Z,90.10
2023-03-22T03:10:56.353Z,90.10
2023-03-22T03:13:23.336Z,90.10
2023-03-22T03:15:57.269Z,90.10
2023-03-22T03:18:45.957Z,90.00
2023-03-22T03:21:17.940Z,90.10
2023-03-22T03:24:00.772Z,90.00
2023-03-22T03:26:33.702Z,90.10
2023-03-22T03:29:15.273Z,90.00
2023-03-22T03:32:04.634Z,90.10
2023-03-22T03:34:52.778Z,90.10
2023-03-22T03:37:26.283Z,90.10
2023-03-22T03:40:01.581Z,90.00
2023-03-22T03:42:30.565Z,90.00
2023-03-22T03:44:58.404Z,90.00
2023-03-22T03:47:28.886Z,90.00
2023-03-22T03:49:55.918Z,90.00
2023-03-22T03:52:26.238Z,90.00
2023-03-22T03:54:53.498Z,90.00
2023-03-22T03:57:27.060Z,90.00
2023-03-22T03:59:54.393Z,90.00
2023-03-22T04:02:42.203Z,90.00
2023-03-22T04:05:18.546Z,90.00
2023-03-22T04:07:45.880Z,90.00
2023-03-22T04:10:13.347Z,90.00
2023-03-22T04:12:40.881Z,90.10
2023-03-22T04:15:18.253Z,90.10
2023-03-22T04:17:51.446Z,90.20
2023-03-22T04:20:19.414Z,90.20
2023-03-22T04:22:48.907Z,90.30
2023-03-22T04:25:18.113Z,90.40
2023-03-22T04:27:57.644Z,90.50
2023-03-22T04:30:27.284Z,90.50
2023-03-22T04:33:15.253Z,90.60
2023-03-22T04:36:02.933Z,90.60
2023-03-22T04:38:37.360Z,90.60
2023-03-22T04:41:05.468Z,90.60
2023-03-22T04:43:47.075Z,90.60
2023-03-22T04:46:16.698Z,90.60
2023-03-22T04:48:52.684Z,90.50
2023-03-22T04:51:19.906Z,90.50
2023-03-22T04:54:14.147Z,90.40
2023-03-22T04:56:42.529Z,90.40
2023-03-22T04:59:10.815Z,90.30
2023-03-22T05:01:38.137Z,90.30
2023-03-22T05:04:11.833Z,90.20
2023-03-22T05:06:41.967Z,90.20
2023-03-22T05:09:16.230Z,90.10
2023-03-22T05:14:58.361Z,90.10
2023-03-22T05:17:30.809Z,90.00
2023-03-22T05:20:10.389Z,90.00
2023-03-22T05:22:40.968Z,90.00
2023-03-22T05:25:11.789Z,90.30
2023-03-22T05:27:42.964Z,90.00
2023-03-22T05:30:31.115Z,90.00
2023-03-22T05:33:05.187Z,90.10
2023-03-22T05:35:40.502Z,90.00
2023-03-22T05:38:10.645Z,89.80
2023-03-22T05:40:42.257Z,89.70
2023-03-22T05:43:09.736Z,89.60
2023-03-22T05:45:39.540Z,89.60
2023-03-22T05:48:26.908Z,89.60
2023-03-22T05:50:54.087Z,89.50
2023-03-22T05:53:21.492Z,89.40
2023-03-22T05:56:00.831Z,89.50
2023-03-22T05:58:32.182Z,89.40
2023-03-22T06:01:13.512Z,89.40
2023-03-22T06:03:46.486Z,89.40
2023-03-22T06:06:24.710Z,89.40
2023-03-22T06:09:10.619Z,89.40
2023-03-22T06:11:43.580Z,89.40
2023-03-22T06:14:11.126Z,89.30
2023-03-22T06:16:54.280Z,89.20
2023-03-22T06:19:21.830Z,89.20
2023-03-22T06:21:49.626Z,89.10
2023-03-22T06:24:18.120Z,89.20
2023-03-22T06:26:47.058Z,89.30
2023-03-22T06:29:14.373Z,89.20
2023-03-22T06:31:41.385Z,89.30
2023-03-22T06:34:09.187Z,89.30
2023-03-22T06:36:39.371Z,89.20
2023-03-22T06:39:11.411Z,89.10
2023-03-22T06:41:41.234Z,89.00
2023-03-22T06:44:08.961Z,88.90
2023-03-22T06:46:53.529Z,88.80
2023-03-22T06:49:58.904Z,88.70
2023-03-22T06:52:38.581Z,88.60
2023-03-22T06:55:08.874Z,88.40
2023-03-22T06:57:36.133Z,88.20
2023-03-22T07:00:05.381Z,88.10
2023-03-22T07:02:32.494Z,88.00
2023-03-22T07:05:18.099Z,87.90
2023-03-22T07:07:46.004Z,87.80
2023-03-22T07:10:13.308Z,87.70
2023-03-22T07:12:40.579Z,87.50
2023-03-22T07:15:12.306Z,87.40
2023-03-22T07:17:49.011Z,87.30
2023-03-22T07:20:16.225Z,87.10
2023-03-22T07:22:43.730Z,87.10
2023-03-22T07:25:11.143Z,87.10
2023-03-22T07:27:39.674Z,86.90
2023-03-22T07:30:09.735Z,86.70
2023-03-22T07:32:41.539Z,86.50
2023-03-22T07:35:12.863Z,87.20
2023-03-22T07:37:40.593Z,86.40
2023-03-22T07:40:16.760Z,86.10
2023-03-22T07:42:44.050Z,85.90
2023-03-22T07:45:23.720Z,85.80
2023-03-22T07:48:11.334Z,85.50
2023-03-22T07:50:56.464Z,85.20
2023-03-22T07:53:25.632Z,84.90
2023-03-22T07:55:52.884Z,84.80
2023-03-22T07:58:19.861Z,84.60
2023-03-22T08:00:49.957Z,84.50
2023-03-22T08:03:48.669Z,84.10
2023-03-22T08:06:36.921Z,83.90
2023-03-22T08:09:08.544Z,83.60
2023-03-22T08:11:36.776Z,83.00
2023-03-22T08:14:04.168Z,83.30
2023-03-22T08:16:34.297Z,82.90
2023-03-22T08:19:03.520Z,82.80
2023-03-22T08:21:35.086Z,82.30
2023-03-22T08:24:04.827Z,81.70
2023-03-22T08:26:50.053Z,80.90
2023-03-22T08:29:25.249Z,81.00
2023-03-22T08:31:52.640Z,79.30
2023-03-22T08:34:20.847Z,78.40
2023-03-22T08:36:47.903Z,77.60
2023-03-22T08:39:14.982Z,77.20
2023-03-22T08:41:52.865Z,77.40
2023-03-22T08:44:20.410Z,76.40
2023-03-22T08:46:47.362Z,76.60
2023-03-22T08:49:15.049Z,75.40
2023-03-22T08:51:48.142Z,75.00
2023-03-22T08:54:18.993Z,75.00
2023-03-22T08:57:04.922Z,74.50
2023-03-22T08:59:52.151Z,73.80
2023-03-22T09:02:45.906Z,73.30
2023-03-22T09:05:14.210Z,72.60
2023-03-22T09:07:44.297Z,72.00
2023-03-22T09:10:24.451Z,71.60
2023-03-22T09:12:52.310Z,70.90
2023-03-22T09:15:19.609Z,69.90
2023-03-22T09:17:58.229Z,69.20
2023-03-22T09:20:25.446Z,69.50
2023-03-22T09:22:52.737Z,69.40
2023-03-22T09:25:21.703Z,69.30
2023-03-22T09:27:50.458Z,69.10
2023-03-22T09:30:17.599Z,68.70
2023-03-22T09:32:44.633Z,68.30
2023-03-22T09:35:14.878Z,67.70
2023-03-22T09:37:58.800Z,67.10
2023-03-22T09:40:32.974Z,66.90
2023-03-22T09:43:06.418Z,66.20
2023-03-22T09:45:47.146Z,65.50
2023-03-22T09:48:20.137Z,64.60
2023-03-22T09:50:54.284Z,63.90
2023-03-22T09:53:24.986Z,63.30
2023-03-22T09:56:07.232Z,63.70
2023-03-22T09:58:51.084Z,62.70
2023-03-22T10:01:49.018Z,60.80
2023-03-22T10:04:41.499Z,59.70
2023-03-22T10:07:27.277Z,59.50
2023-03-22T10:10:10.370Z,58.70
2023-03-22T10:12:40.512Z,58.50
2023-03-22T10:15:32.400Z,57.70
2023-03-22T10:18:02.850Z,57.00
2023-03-22T10:20:54.468Z,57.50
2023-03-22T10:23:43.957Z,57.80
2023-03-22T10:26:31.522Z,56.60
2023-03-22T10:29:09.921Z,55.30
2023-03-22T10:31:39.594Z,54.60
2023-03-22T10:34:22.357Z,55.00
2023-03-22T10:36:52.676Z,53.60
2023-03-22T10:39:59.448Z,52.70
2023-03-22T10:42:30.472Z,51.90
2023-03-22T10:45:03.637Z,51.00
2023-03-22T10:47:43.270Z,50.60
2023-03-22T10:50:18.973Z,51.10
2023-03-22T10:53:07.417Z,51.10
2023-03-22T10:55:41.898Z,51.00
2023-03-22T10:58:18.789Z,50.50
2023-03-22T11:00:52.899Z,49.80
2023-03-22T11:03:46.955Z,48.70
2023-03-22T11:06:29.743Z,48.30
2023-03-22T11:09:16.017Z,47.60
2023-03-22T11:12:02.847Z,46.60
2023-03-22T11:14:32.756Z,46.80
2023-03-22T11:17:10.228Z,47.70
2023-03-22T11:19:51.873Z,47.70
2023-03-22T11:22:36.151Z,47.10
2023-03-22T11:25:16.139Z,47.20
2023-03-22T11:27:58.327Z,47.10
2023-03-22T11:30:29.464Z,47.30
2023-03-22T11:33:21.630Z,48.10
2023-03-22T11:35:56.794Z,47.70
2023-03-22T11:38:38.302Z,48.00
2023-03-22T11:41:12.380Z,48.00
2023-03-22T11:43:48.619Z,48.00
2023-03-22T11:46:19.317Z,47.90
2023-03-22T11:48:50.649Z,47.90
2023-03-22T11:51:29.912Z,47.90
2023-03-22T11:54:08.669Z,47.90
2023-03-22T11:56:43.006Z,47.80
2023-03-22T11:59:25.621Z,48.20
2023-03-22T12:02:42.106Z,47.90
2023-03-22T12:05:25.603Z,47.90
2023-03-22T12:08:00.724Z,47.90
2023-03-22T12:10:41.822Z,47.70
2023-03-22T12:13:41.783Z,47.00
2023-03-22T12:16:15.116Z,46.70
2023-03-22T12:18:57.580Z,45.70
2023-03-22T12:21:25.684Z,45.50
2023-03-22T12:23:56.612Z,44.40
2023-03-22T12:26:29.309Z,44.10
2023-03-22T12:29:05.685Z,43.90
2023-03-22T12:31:37.563Z,43.70
2023-03-22T12:34:11.748Z,44.00
2023-03-22T12:36:47.804Z,43.90
2023-03-22T12:39:38.436Z,43.00
2023-03-22T12:42:30.796Z,42.30
2023-03-22T12:45:08.603Z,42.70
2023-03-22T12:47:43.995Z,42.00
2023-03-22T12:50:22.084Z,41.60
2023-03-22T12:52:56.550Z,41.30
2023-03-22T12:55:32.836Z,41.60
2023-03-22T12:58:00.717Z,41.30
2023-03-22T13:00:41.823Z,41.10
2023-03-22T13:03:27.268Z,39.90
2023-03-22T13:06:27.969Z,38.30
2023-03-22T13:09:15.688Z,37.90
2023-03-22T13:11:53.200Z,37.80
2023-03-22T13:14:52.263Z,38.40
2023-03-22T13:17:25.999Z,38.90
2023-03-22T13:20:23.779Z,37.80
2023-03-22T13:22:51.414Z,37.80
2023-03-22T13:25:22.791Z,38.50
2023-03-22T13:28:03.515Z,38.90
2023-03-22T13:30:36.222Z,39.40
2023-03-22T13:33:09.888Z,39.20
2023-03-22T13:35:52.804Z,38.80
2023-03-22T13:38:30.303Z,38.70
2023-03-22T13:41:22.053Z,38.80
2023-03-22T13:43:52.252Z,38.90
2023-03-22T13:46:22.136Z,39.40
2023-03-22T13:48:50.657Z,39.30
2023-03-22T13:51:25.453Z,38.90
2023-03-22T13:54:21.452Z,38.50
2023-03-22T13:56:56.425Z,38.30
2023-03-22T13:59:32.381Z,37.70
2023-03-22T14:02:12.278Z,37.10
2023-03-22T14:04:50.885Z,36.70
2023-03-22T14:07:41.743Z,36.30
2023-03-22T14:10:25.641Z,36.40
2023-03-22T14:13:30.900Z,36.20
2023-03-22T14:16:08.302Z,36.70
2023-03-22T14:18:41.152Z,36.90
2023-03-22T14:21:18.530Z,37.20
